sensor_id;sensor_type;location;lat;lon;timestamp;temperature;humidity
528;DHT22;250;47.712;7.508;2022-12-07T00:01:48;6.20;37.10
528;DHT22;250;47.712;7.508;2022-12-07T00:04:16;6.20;37.10
528;DHT22;250;47.712;7.508;2022-12-07T00:06:50;6.20;37.10
528;DHT22;250;47.712;7.508;2022-12-07T00:09:17;6.10;37.50
528;DHT22;250;47.712;7.508;2022-12-07T00:11:47;6.10;37.10
528;DHT22;250;47.712;7.508;2022-12-07T00:14:15;6.00;37.80
528;DHT22;250;47.712;7.508;2022-12-07T00:16:43;6.00;38.30
528;DHT22;250;47.712;7.508;2022-12-07T00:19:12;6.00;38.50
528;DHT22;250;47.712;7.508;2022-12-07T00:21:39;6.10;39.00
528;DHT22;250;47.712;7.508;2022-12-07T00:24:09;6.20;37.70
528;DHT22;250;47.712;7.508;2022-12-07T00:26:38;6.20;37.70
528;DHT22;250;47.712;7.508;2022-12-07T00:29:07;6.20;37.70
528;DHT22;250;47.712;7.508;2022-12-07T00:31:37;6.20;38.00
528;DHT22;250;47.712;7.508;2022-12-07T00:34:05;6.20;37.10
528;DHT22;250;47.712;7.508;2022-12-07T00:36:32;6.30;37.90
528;DHT22;250;47.712;7.508;2022-12-07T00:38:59;6.30;37.30
528;DHT22;250;47.712;7.508;2022-12-07T00:41:30;6.30;37.20
528;DHT22;250;47.712;7.508;2022-12-07T00:43:57;6.30;37.20
528;DHT22;250;47.712;7.508;2022-12-07T00:46:25;6.30;37.20
528;DHT22;250;47.712;7.508;2022-12-07T00:48:52;6.40;37.10
528;DHT22;250;47.712;7.508;2022-12-07T00:51:22;6.40;36.90
528;DHT22;250;47.712;7.508;2022-12-07T00:53:50;6.40;36.70
528;DHT22;250;47.712;7.508;2022-12-07T00:56:19;6.40;36.90
528;DHT22;250;47.712;7.508;2022-12-07T00:58:51;6.40;36.70
528;DHT22;250;47.712;7.508;2022-12-07T01:01:19;6.40;36.80
528;DHT22;250;47.712;7.508;2022-12-07T01:03:46;6.40;36.40
528;DHT22;250;47.712;7.508;2022-12-07T01:06:14;6.30;36.60
528;DHT22;250;47.712;7.508;2022-12-07T01:08:42;6.20;37.10
528;DHT22;250;47.712;7.508;2022-12-07T01:11:11;6.20;37.10
528;DHT22;250;47.712;7.508;2022-12-07T01:13:39;6.30;37.10
528;DHT22;250;47.712;7.508;2022-12-07T01:16:10;6.30;36.80
528;DHT22;250;47.712;7.508;2022-12-07T01:18:37;6.30;36.60
528;DHT22;250;47.712;7.508;2022-12-07T01:21:06;6.40;36.10
528;DHT22;250;47.712;7.508;2022-12-07T01:23:34;6.40;35.70
528;DHT22;250;47.712;7.508;2022-12-07T01:26:03;6.40;35.40
528;DHT22;250;47.712;7.508;2022-12-07T01:28:31;6.40;35.30
528;DHT22;250;47.712;7.508;2022-12-07T01:30:59;6.40;36.00
528;DHT22;250;47.712;7.508;2022-12-07T01:33:29;6.40;35.80
528;DHT22;250;47.712;7.508;2022-12-07T01:36:01;6.50;35.70
528;DHT22;250;47.712;7.508;2022-12-07T01:38:29;6.50;35.30
528;DHT22;250;47.712;7.508;2022-12-07T01:40:57;6.50;35.00
528;DHT22;250;47.712;7.508;2022-12-07T01:43:26;6.60;35.00
528;DHT22;250;47.712;7.508;2022-12-07T01:45:54;6.60;34.80
528;DHT22;250;47.712;7.508;2022-12-07T01:48:24;6.60;34.80
528;DHT22;250;47.712;7.508;2022-12-07T01:50:56;6.60;34.50
528;DHT22;250;47.712;7.508;2022-12-07T01:53:29;6.60;34.50
528;DHT22;250;47.712;7.508;2022-12-07T01:55:58;6.60;34.40
528;DHT22;250;47.712;7.508;2022-12-07T01:58:25;6.60;34.30
528;DHT22;250;47.712;7.508;2022-12-07T02:00:53;6.50;34.80
528;DHT22;250;47.712;7.508;2022-12-07T02:03:24;6.60;34.50
528;DHT22;250;47.712;7.508;2022-12-07T02:05:54;6.50;34.70
528;DHT22;250;47.712;7.508;2022-12-07T02:08:22;6.50;34.60
528;DHT22;250;47.712;7.508;2022-12-07T02:10:49;6.50;34.70
528;DHT22;250;47.712;7.508;2022-12-07T02:13:19;6.40;35.30
528;DHT22;250;47.712;7.508;2022-12-07T02:16:03;6.50;35.30
528;DHT22;250;47.712;7.508;2022-12-07T02:18:42;6.50;34.80
528;DHT22;250;47.712;7.508;2022-12-07T02:21:16;6.50;34.70
528;DHT22;250;47.712;7.508;2022-12-07T02:24:25;6.50;34.80
528;DHT22;250;47.712;7.508;2022-12-07T02:30:03;6.50;34.80
528;DHT22;250;47.712;7.508;2022-12-07T02:32:43;6.50;34.60
528;DHT22;250;47.712;7.508;2022-12-07T02:35:15;6.40;35.00
528;DHT22;250;47.712;7.508;2022-12-07T02:37:51;6.30;35.20
528;DHT22;250;47.712;7.508;2022-12-07T02:40:23;6.30;35.70
528;DHT22;250;47.712;7.508;2022-12-07T02:42:57;6.20;35.80
528;DHT22;250;47.712;7.508;2022-12-07T02:45:28;6.20;36.30
528;DHT22;250;47.712;7.508;2022-12-07T02:47:58;6.10;36.30
528;DHT22;250;47.712;7.508;2022-12-07T02:50:27;6.00;37.00
528;DHT22;250;47.712;7.508;2022-12-07T02:52:54;6.00;37.10
528;DHT22;250;47.712;7.508;2022-12-07T02:55:26;5.90;36.90
528;DHT22;250;47.712;7.508;2022-12-07T02:58:06;5.90;36.90
528;DHT22;250;47.712;7.508;2022-12-07T03:00:50;6.00;37.00
528;DHT22;250;47.712;7.508;2022-12-07T03:03:18;5.90;36.90
528;DHT22;250;47.712;7.508;2022-12-07T03:08:45;5.90;37.60
528;DHT22;250;47.712;7.508;2022-12-07T03:11:15;5.80;38.40
528;DHT22;250;47.712;7.508;2022-12-07T03:13:48;5.80;38.20
528;DHT22;250;47.712;7.508;2022-12-07T03:16:21;5.80;38.60
528;DHT22;250;47.712;7.508;2022-12-07T03:18:54;5.70;39.20
528;DHT22;250;47.712;7.508;2022-12-07T03:21:24;5.80;39.70
528;DHT22;250;47.712;7.508;2022-12-07T03:23:56;5.80;39.30
528;DHT22;250;47.712;7.508;2022-12-07T03:26:30;5.80;39.70
528;DHT22;250;47.712;7.508;2022-12-07T03:29:01;5.70;40.00
528;DHT22;250;47.712;7.508;2022-12-07T03:31:32;5.70;40.30
528;DHT22;250;47.712;7.508;2022-12-07T03:34:05;5.70;40.60
528;DHT22;250;47.712;7.508;2022-12-07T03:36:39;5.70;41.50
528;DHT22;250;47.712;7.508;2022-12-07T03:39:14;5.70;42.40
528;DHT22;250;47.712;7.508;2022-12-07T03:41:44;5.60;42.80
528;DHT22;250;47.712;7.508;2022-12-07T03:44:12;5.70;43.00
528;DHT22;250;47.712;7.508;2022-12-07T03:46:44;5.60;42.40
528;DHT22;250;47.712;7.508;2022-12-07T03:49:18;5.60;42.90
528;DHT22;250;47.712;7.508;2022-12-07T03:51:53;5.70;42.70
528;DHT22;250;47.712;7.508;2022-12-07T03:54:24;5.70;42.30
528;DHT22;250;47.712;7.508;2022-12-07T03:56:54;5.70;42.10
528;DHT22;250;47.712;7.508;2022-12-07T03:59:22;5.70;41.50
528;DHT22;250;47.712;7.508;2022-12-07T04:01:54;5.90;41.70
528;DHT22;250;47.712;7.508;2022-12-07T04:04:21;5.90;40.20
528;DHT22;250;47.712;7.508;2022-12-07T04:06:49;5.90;40.30
528;DHT22;250;47.712;7.508;2022-12-07T04:09:16;6.00;39.50
528;DHT22;250;47.712;7.508;2022-12-07T04:11:43;6.10;38.70
528;DHT22;250;47.712;7.508;2022-12-07T04:14:10;6.10;38.50
528;DHT22;250;47.712;7.508;2022-12-07T04:16:47;6.10;38.20
528;DHT22;250;47.712;7.508;2022-12-07T04:19:18;6.10;37.70
528;DHT22;250;47.712;7.508;2022-12-07T04:21:45;6.10;37.60
528;DHT22;250;47.712;7.508;2022-12-07T04:24:14;6.00;37.00
528;DHT22;250;47.712;7.508;2022-12-07T04:26:41;6.10;37.10
528;DHT22;250;47.712;7.508;2022-12-07T04:29:09;6.10;36.00
528;DHT22;250;47.712;7.508;2022-12-07T04:31:36;6.10;36.10
528;DHT22;250;47.712;7.508;2022-12-07T04:34:04;6.10;35.90
528;DHT22;250;47.712;7.508;2022-12-07T04:36:32;6.20;35.70
528;DHT22;250;47.712;7.508;2022-12-07T04:39:00;6.20;35.10
528;DHT22;250;47.712;7.508;2022-12-07T04:41:27;6.20;34.30
528;DHT22;250;47.712;7.508;2022-12-07T04:43:55;6.20;34.50
528;DHT22;250;47.712;7.508;2022-12-07T04:46:22;6.30;34.00
528;DHT22;250;47.712;7.508;2022-12-07T04:48:50;6.30;34.00
528;DHT22;250;47.712;7.508;2022-12-07T04:51:20;6.20;34.10
528;DHT22;250;47.712;7.508;2022-12-07T04:53:49;6.20;34.30
528;DHT22;250;47.712;7.508;2022-12-07T04:56:17;6.20;34.10
528;DHT22;250;47.712;7.508;2022-12-07T04:58:46;6.10;34.20
528;DHT22;250;47.712;7.508;2022-12-07T05:01:14;6.10;34.10
528;DHT22;250;47.712;7.508;2022-12-07T05:03:42;6.10;33.90
528;DHT22;250;47.712;7.508;2022-12-07T05:06:10;6.00;33.70
528;DHT22;250;47.712;7.508;2022-12-07T05:08:37;5.90;34.20
528;DHT22;250;47.712;7.508;2022-12-07T05:11:07;6.00;34.30
528;DHT22;250;47.712;7.508;2022-12-07T05:13:34;6.00;34.20
528;DHT22;250;47.712;7.508;2022-12-07T05:16:01;6.00;34.10
528;DHT22;250;47.712;7.508;2022-12-07T05:18:28;6.00;33.80
528;DHT22;250;47.712;7.508;2022-12-07T05:20:55;5.90;33.90
528;DHT22;250;47.712;7.508;2022-12-07T05:23:22;5.90;33.90
528;DHT22;250;47.712;7.508;2022-12-07T05:25:50;6.00;33.80
528;DHT22;250;47.712;7.508;2022-12-07T05:28:18;5.90;33.90
528;DHT22;250;47.712;7.508;2022-12-07T05:30:45;5.90;33.70
528;DHT22;250;47.712;7.508;2022-12-07T05:33:12;5.90;33.50
528;DHT22;250;47.712;7.508;2022-12-07T05:35:40;5.90;33.70
528;DHT22;250;47.712;7.508;2022-12-07T05:38:07;5.80;34.20
528;DHT22;250;47.712;7.508;2022-12-07T05:40:34;5.80;34.30
528;DHT22;250;47.712;7.508;2022-12-07T05:43:01;5.80;34.40
528;DHT22;250;47.712;7.508;2022-12-07T05:45:29;5.90;34.20
528;DHT22;250;47.712;7.508;2022-12-07T05:47:56;5.90;34.50
528;DHT22;250;47.712;7.508;2022-12-07T05:50:23;5.90;34.20
528;DHT22;250;47.712;7.508;2022-12-07T05:52:50;5.80;34.60
528;DHT22;250;47.712;7.508;2022-12-07T05:55:18;5.80;34.60
528;DHT22;250;47.712;7.508;2022-12-07T05:57:45;5.80;34.70
528;DHT22;250;47.712;7.508;2022-12-07T06:00:33;5.80;34.90
528;DHT22;250;47.712;7.508;2022-12-07T06:02:59;5.80;34.80
528;DHT22;250;47.712;7.508;2022-12-07T06:05:26;5.70;35.20
528;DHT22;250;47.712;7.508;2022-12-07T06:07:53;5.60;35.50
528;DHT22;250;47.712;7.508;2022-12-07T06:10:20;5.70;35.80
528;DHT22;250;47.712;7.508;2022-12-07T06:12:47;5.80;35.50
528;DHT22;250;47.712;7.508;2022-12-07T06:15:14;5.90;35.00
528;DHT22;250;47.712;7.508;2022-12-07T06:17:42;5.90;34.40
528;DHT22;250;47.712;7.508;2022-12-07T06:20:09;6.00;34.00
528;DHT22;250;47.712;7.508;2022-12-07T06:22:36;6.00;33.80
528;DHT22;250;47.712;7.508;2022-12-07T06:25:04;6.10;33.50
528;DHT22;250;47.712;7.508;2022-12-07T06:27:32;6.10;33.30
528;DHT22;250;47.712;7.508;2022-12-07T06:30:00;6.10;33.30
528;DHT22;250;47.712;7.508;2022-12-07T06:32:33;6.10;33.10
528;DHT22;250;47.712;7.508;2022-12-07T06:35:01;6.10;32.40
528;DHT22;250;47.712;7.508;2022-12-07T06:37:28;6.10;32.20
528;DHT22;250;47.712;7.508;2022-12-07T06:39:55;6.10;32.20
528;DHT22;250;47.712;7.508;2022-12-07T06:42:22;6.10;32.20
528;DHT22;250;47.712;7.508;2022-12-07T06:44:49;6.10;32.20
528;DHT22;250;47.712;7.508;2022-12-07T06:47:17;6.00;32.10
528;DHT22;250;47.712;7.508;2022-12-07T06:49:44;6.00;32.10
528;DHT22;250;47.712;7.508;2022-12-07T06:52:12;6.00;32.10
528;DHT22;250;47.712;7.508;2022-12-07T06:54:39;6.00;32.10
528;DHT22;250;47.712;7.508;2022-12-07T06:57:06;6.00;32.10
528;DHT22;250;47.712;7.508;2022-12-07T06:59:33;6.00;32.10
528;DHT22;250;47.712;7.508;2022-12-07T07:02:00;6.00;32.10
528;DHT22;250;47.712;7.508;2022-12-07T07:04:27;5.90;32.70
528;DHT22;250;47.712;7.508;2022-12-07T07:06:54;6.00;32.40
528;DHT22;250;47.712;7.508;2022-12-07T07:09:23;6.00;32.10
528;DHT22;250;47.712;7.508;2022-12-07T07:11:50;6.00;32.10
528;DHT22;250;47.712;7.508;2022-12-07T07:14:17;6.00;32.10
528;DHT22;250;47.712;7.508;2022-12-07T07:16:45;6.00;32.10
528;DHT22;250;47.712;7.508;2022-12-07T07:19:12;6.00;32.10
528;DHT22;250;47.712;7.508;2022-12-07T07:21:39;6.00;32.20
528;DHT22;250;47.712;7.508;2022-12-07T07:24:06;5.90;32.10
528;DHT22;250;47.712;7.508;2022-12-07T07:26:35;5.90;32.20
528;DHT22;250;47.712;7.508;2022-12-07T07:29:02;5.90;32.30
528;DHT22;250;47.712;7.508;2022-12-07T07:31:29;5.90;32.60
528;DHT22;250;47.712;7.508;2022-12-07T07:33:56;5.90;32.70
528;DHT22;250;47.712;7.508;2022-12-07T07:36:23;5.90;32.80
528;DHT22;250;47.712;7.508;2022-12-07T07:38:50;5.90;32.70
528;DHT22;250;47.712;7.508;2022-12-07T07:41:18;5.90;32.70
528;DHT22;250;47.712;7.508;2022-12-07T07:43:46;5.90;32.30
528;DHT22;250;47.712;7.508;2022-12-07T07:46:13;5.90;32.10
528;DHT22;250;47.712;7.508;2022-12-07T07:48:40;5.90;32.10
528;DHT22;250;47.712;7.508;2022-12-07T07:51:08;5.80;32.30
528;DHT22;250;47.712;7.508;2022-12-07T07:53:35;5.80;32.50
528;DHT22;250;47.712;7.508;2022-12-07T07:56:03;5.70;32.80
528;DHT22;250;47.712;7.508;2022-12-07T07:58:30;5.70;32.80
528;DHT22;250;47.712;7.508;2022-12-07T08:01:03;5.70;32.50
528;DHT22;250;47.712;7.508;2022-12-07T08:03:31;5.70;32.20
528;DHT22;250;47.712;7.508;2022-12-07T08:05:58;5.80;31.90
528;DHT22;250;47.712;7.508;2022-12-07T08:08:25;5.80;31.80
528;DHT22;250;47.712;7.508;2022-12-07T08:10:52;5.80;31.50
528;DHT22;250;47.712;7.508;2022-12-07T08:13:19;5.80;31.30
528;DHT22;250;47.712;7.508;2022-12-07T08:15:47;5.70;31.90
528;DHT22;250;47.712;7.508;2022-12-07T08:18:16;5.70;31.90
528;DHT22;250;47.712;7.508;2022-12-07T08:20:43;5.70;31.80
528;DHT22;250;47.712;7.508;2022-12-07T08:23:10;5.80;32.00
528;DHT22;250;47.712;7.508;2022-12-07T08:25:38;5.80;32.00
528;DHT22;250;47.712;7.508;2022-12-07T08:28:05;5.80;32.70
528;DHT22;250;47.712;7.508;2022-12-07T08:30:32;5.80;32.40
528;DHT22;250;47.712;7.508;2022-12-07T08:32:59;5.80;32.60
528;DHT22;250;47.712;7.508;2022-12-07T08:35:28;5.60;33.60
528;DHT22;250;47.712;7.508;2022-12-07T08:37:55;5.70;33.90
528;DHT22;250;47.712;7.508;2022-12-07T08:40:23;5.80;33.90
528;DHT22;250;47.712;7.508;2022-12-07T08:42:50;5.80;33.80
528;DHT22;250;47.712;7.508;2022-12-07T08:45:19;5.90;33.80
528;DHT22;250;47.712;7.508;2022-12-07T08:47:49;5.90;34.10
528;DHT22;250;47.712;7.508;2022-12-07T08:50:17;5.90;34.50
528;DHT22;250;47.712;7.508;2022-12-07T08:52:48;5.80;34.90
528;DHT22;250;47.712;7.508;2022-12-07T08:55:17;5.80;35.40
528;DHT22;250;47.712;7.508;2022-12-07T08:57:44;5.80;35.80
528;DHT22;250;47.712;7.508;2022-12-07T09:00:13;5.80;36.00
528;DHT22;250;47.712;7.508;2022-12-07T09:02:40;5.80;36.40
528;DHT22;250;47.712;7.508;2022-12-07T09:05:08;5.90;36.60
528;DHT22;250;47.712;7.508;2022-12-07T09:07:35;5.90;36.40
528;DHT22;250;47.712;7.508;2022-12-07T09:10:05;5.80;36.70
528;DHT22;250;47.712;7.508;2022-12-07T09:12:32;5.80;36.70
528;DHT22;250;47.712;7.508;2022-12-07T09:14:59;5.80;36.80
528;DHT22;250;47.712;7.508;2022-12-07T09:17:27;5.90;36.00
528;DHT22;250;47.712;7.508;2022-12-07T09:19:54;5.90;35.80
528;DHT22;250;47.712;7.508;2022-12-07T09:22:21;5.80;35.70
528;DHT22;250;47.712;7.508;2022-12-07T09:24:48;5.90;35.50
528;DHT22;250;47.712;7.508;2022-12-07T09:27:16;5.90;34.70
528;DHT22;250;47.712;7.508;2022-12-07T09:29:44;6.00;35.50
528;DHT22;250;47.712;7.508;2022-12-07T09:32:11;6.00;35.20
528;DHT22;250;47.712;7.508;2022-12-07T09:34:38;6.10;35.20
528;DHT22;250;47.712;7.508;2022-12-07T09:37:05;6.20;33.40
528;DHT22;250;47.712;7.508;2022-12-07T09:39:32;6.10;33.30
528;DHT22;250;47.712;7.508;2022-12-07T09:42:03;6.10;34.30
528;DHT22;250;47.712;7.508;2022-12-07T09:44:32;6.10;34.20
528;DHT22;250;47.712;7.508;2022-12-07T09:47:00;6.00;34.40
528;DHT22;250;47.712;7.508;2022-12-07T09:49:29;6.00;34.80
528;DHT22;250;47.712;7.508;2022-12-07T09:52:02;6.00;34.50
528;DHT22;250;47.712;7.508;2022-12-07T09:54:30;5.90;34.10
528;DHT22;250;47.712;7.508;2022-12-07T09:56:58;5.90;34.50
528;DHT22;250;47.712;7.508;2022-12-07T09:59:25;5.90;34.40
528;DHT22;250;47.712;7.508;2022-12-07T10:01:54;5.90;34.40
528;DHT22;250;47.712;7.508;2022-12-07T10:04:24;6.00;34.10
528;DHT22;250;47.712;7.508;2022-12-07T10:06:52;6.00;33.20
528;DHT22;250;47.712;7.508;2022-12-07T10:09:20;6.00;33.10
528;DHT22;250;47.712;7.508;2022-12-07T10:12:06;6.00;33.10
528;DHT22;250;47.712;7.508;2022-12-07T10:14:36;6.00;33.10
528;DHT22;250;47.712;7.508;2022-12-07T10:17:29;6.10;33.30
528;DHT22;250;47.712;7.508;2022-12-07T10:20:13;6.10;33.20
528;DHT22;250;47.712;7.508;2022-12-07T10:22:54;6.20;32.80
528;DHT22;250;47.712;7.508;2022-12-07T10:25:22;6.20;32.90
528;DHT22;250;47.712;7.508;2022-12-07T10:27:58;6.30;32.70
528;DHT22;250;47.712;7.508;2022-12-07T10:30:26;6.20;32.30
528;DHT22;250;47.712;7.508;2022-12-07T10:32:54;6.30;32.40
528;DHT22;250;47.712;7.508;2022-12-07T10:35:24;6.30;32.40
528;DHT22;250;47.712;7.508;2022-12-07T10:37:53;6.30;31.90
528;DHT22;250;47.712;7.508;2022-12-07T10:40:28;6.40;32.00
528;DHT22;250;47.712;7.508;2022-12-07T10:43:15;6.50;31.30
528;DHT22;250;47.712;7.508;2022-12-07T10:46:07;6.40;31.00
528;DHT22;250;47.712;7.508;2022-12-07T10:48:47;6.50;30.50
528;DHT22;250;47.712;7.508;2022-12-07T10:51:22;6.60;30.40
528;DHT22;250;47.712;7.508;2022-12-07T10:54:03;6.70;29.40
528;DHT22;250;47.712;7.508;2022-12-07T10:56:48;6.60;29.20
528;DHT22;250;47.712;7.508;2022-12-07T10:59:44;6.60;28.50
528;DHT22;250;47.712;7.508;2022-12-07T11:02:25;6.70;28.50
528;DHT22;250;47.712;7.508;2022-12-07T11:05:01;6.80;28.50
528;DHT22;250;47.712;7.508;2022-12-07T11:07:39;6.90;28.00
528;DHT22;250;47.712;7.508;2022-12-07T11:10:13;6.90;27.00
528;DHT22;250;47.712;7.508;2022-12-07T11:12:50;7.00;26.10
528;DHT22;250;47.712;7.508;2022-12-07T11:15:25;7.10;26.50
528;DHT22;250;47.712;7.508;2022-12-07T11:17:59;7.10;25.40
528;DHT22;250;47.712;7.508;2022-12-07T11:20:41;7.10;25.70
528;DHT22;250;47.712;7.508;2022-12-07T11:23:18;7.30;25.50
528;DHT22;250;47.712;7.508;2022-12-07T11:25:54;7.40;25.00
528;DHT22;250;47.712;7.508;2022-12-07T11:28:37;7.30;23.20
528;DHT22;250;47.712;7.508;2022-12-07T11:31:12;7.40;22.20
528;DHT22;250;47.712;7.508;2022-12-07T11:33:45;7.40;21.10
528;DHT22;250;47.712;7.508;2022-12-07T11:36:30;7.40;21.10
528;DHT22;250;47.712;7.508;2022-12-07T11:39:00;7.30;21.30
528;DHT22;250;47.712;7.508;2022-12-07T11:41:31;7.40;22.00
528;DHT22;250;47.712;7.508;2022-12-07T11:44:04;7.60;21.20
528;DHT22;250;47.712;7.508;2022-12-07T11:46:45;7.70;19.90
528;DHT22;250;47.712;7.508;2022-12-07T11:49:21;7.70;20.30
528;DHT22;250;47.712;7.508;2022-12-07T11:51:56;7.90;19.60
528;DHT22;250;47.712;7.508;2022-12-07T11:54:26;8.00;19.10
528;DHT22;250;47.712;7.508;2022-12-07T11:56:59;8.00;16.20
528;DHT22;250;47.712;7.508;2022-12-07T11:59:32;7.90;16.60
528;DHT22;250;47.712;7.508;2022-12-07T12:02:11;8.00;17.40
528;DHT22;250;47.712;7.508;2022-12-07T12:04:47;8.10;16.40
528;DHT22;250;47.712;7.508;2022-12-07T12:07:21;8.10;15.40
528;DHT22;250;47.712;7.508;2022-12-07T12:09:52;8.10;14.80
528;DHT22;250;47.712;7.508;2022-12-07T12:12:38;8.10;14.70
528;DHT22;250;47.712;7.508;2022-12-07T12:15:23;8.10;15.10
528;DHT22;250;47.712;7.508;2022-12-07T12:20:55;8.20;15.50
528;DHT22;250;47.712;7.508;2022-12-07T12:23:33;8.30;15.40
528;DHT22;250;47.712;7.508;2022-12-07T12:26:05;8.40;15.00
528;DHT22;250;47.712;7.508;2022-12-07T12:28:38;8.50;15.10
528;DHT22;250;47.712;7.508;2022-12-07T12:31:09;8.60;15.10
528;DHT22;250;47.712;7.508;2022-12-07T12:33:37;8.80;14.20
528;DHT22;250;47.712;7.508;2022-12-07T12:36:23;8.90;14.60
528;DHT22;250;47.712;7.508;2022-12-07T12:39:08;9.10;14.20
528;DHT22;250;47.712;7.508;2022-12-07T12:41:54;9.10;13.80
528;DHT22;250;47.712;7.508;2022-12-07T12:44:42;9.70;14.20
528;DHT22;250;47.712;7.508;2022-12-07T12:47:43;11.70;11.60
528;DHT22;250;47.712;7.508;2022-12-07T12:50:20;14.40;8.80
528;DHT22;250;47.712;7.508;2022-12-07T12:52:52;15.70;6.20
528;DHT22;250;47.712;7.508;2022-12-07T12:58:36;18.10;3.90
528;DHT22;250;47.712;7.508;2022-12-07T13:01:33;18.70;2.10
528;DHT22;250;47.712;7.508;2022-12-07T13:04:18;19.00;2.20
528;DHT22;250;47.712;7.508;2022-12-07T13:06:48;19.60;1.60
528;DHT22;250;47.712;7.508;2022-12-07T13:09:21;20.20;1.60
528;DHT22;250;47.712;7.508;2022-12-07T13:11:56;20.50;1.00
528;DHT22;250;47.712;7.508;2022-12-07T13:18:01;20.80;1.00
528;DHT22;250;47.712;7.508;2022-12-07T13:20:47;21.30;1.00
528;DHT22;250;47.712;7.508;2022-12-07T13:23:21;21.30;1.00
528;DHT22;250;47.712;7.508;2022-12-07T13:25:54;21.10;1.00
528;DHT22;250;47.712;7.508;2022-12-07T13:28:26;21.20;1.00
528;DHT22;250;47.712;7.508;2022-12-07T13:31:04;21.20;1.00
528;DHT22;250;47.712;7.508;2022-12-07T13:33:36;21.30;1.00
528;DHT22;250;47.712;7.508;2022-12-07T13:36:03;21.10;1.00
528;DHT22;250;47.712;7.508;2022-12-07T13:38:32;21.00;1.00
528;DHT22;250;47.712;7.508;2022-12-07T13:41:11;20.90;1.00
528;DHT22;250;47.712;7.508;2022-12-07T13:43:45;21.00;1.00
528;DHT22;250;47.712;7.508;2022-12-07T13:46:12;21.20;1.00
528;DHT22;250;47.712;7.508;2022-12-07T13:48:45;21.20;1.00
528;DHT22;250;47.712;7.508;2022-12-07T13:51:21;20.40;1.00
528;DHT22;250;47.712;7.508;2022-12-07T13:53:50;20.10;1.00
528;DHT22;250;47.712;7.508;2022-12-07T13:56:18;19.00;1.00
528;DHT22;250;47.712;7.508;2022-12-07T13:58:46;17.70;1.40
528;DHT22;250;47.712;7.508;2022-12-07T14:01:13;16.70;2.00
528;DHT22;250;47.712;7.508;2022-12-07T14:03:40;16.10;3.00
528;DHT22;250;47.712;7.508;2022-12-07T14:06:16;14.90;4.00
528;DHT22;250;47.712;7.508;2022-12-07T14:08:44;14.00;4.30
528;DHT22;250;47.712;7.508;2022-12-07T14:11:16;13.30;5.50
528;DHT22;250;47.712;7.508;2022-12-07T14:13:58;12.70;6.40
528;DHT22;250;47.712;7.508;2022-12-07T14:16:28;12.10;7.20
528;DHT22;250;47.712;7.508;2022-12-07T14:18:57;11.80;7.90
528;DHT22;250;47.712;7.508;2022-12-07T14:21:26;11.50;7.90
528;DHT22;250;47.712;7.508;2022-12-07T14:24:12;11.20;7.90
528;DHT22;250;47.712;7.508;2022-12-07T14:26:42;11.00;9.10
528;DHT22;250;47.712;7.508;2022-12-07T14:29:31;10.80;9.70
528;DHT22;250;47.712;7.508;2022-12-07T14:32:20;10.60;10.30
528;DHT22;250;47.712;7.508;2022-12-07T14:34:59;10.50;10.20
528;DHT22;250;47.712;7.508;2022-12-07T14:37:28;10.40;10.20
528;DHT22;250;47.712;7.508;2022-12-07T14:39:55;10.30;10.10
528;DHT22;250;47.712;7.508;2022-12-07T14:42:26;10.20;10.30
528;DHT22;250;47.712;7.508;2022-12-07T14:44:55;10.10;10.80
528;DHT22;250;47.712;7.508;2022-12-07T14:47:22;10.00;11.00
528;DHT22;250;47.712;7.508;2022-12-07T14:49:50;10.00;10.80
528;DHT22;250;47.712;7.508;2022-12-07T14:52:19;9.80;11.90
528;DHT22;250;47.712;7.508;2022-12-07T14:54:47;9.80;12.30
528;DHT22;250;47.712;7.508;2022-12-07T14:57:14;9.70;12.50
528;DHT22;250;47.712;7.508;2022-12-07T14:59:41;9.60;13.00
528;DHT22;250;47.712;7.508;2022-12-07T15:02:14;9.60;12.90
528;DHT22;250;47.712;7.508;2022-12-07T15:04:41;9.60;13.00
528;DHT22;250;47.712;7.508;2022-12-07T15:07:15;9.50;12.90
528;DHT22;250;47.712;7.508;2022-12-07T15:09:44;9.50;12.60
528;DHT22;250;47.712;7.508;2022-12-07T15:12:11;9.50;12.70
528;DHT22;250;47.712;7.508;2022-12-07T15:14:38;9.40;12.80
528;DHT22;250;47.712;7.508;2022-12-07T15:17:05;9.30;12.90
528;DHT22;250;47.712;7.508;2022-12-07T15:19:34;9.20;13.00
528;DHT22;250;47.712;7.508;2022-12-07T15:22:01;9.20;13.00
528;DHT22;250;47.712;7.508;2022-12-07T15:24:28;9.20;13.10
528;DHT22;250;47.712;7.508;2022-12-07T15:26:55;9.20;13.30
528;DHT22;250;47.712;7.508;2022-12-07T15:29:22;9.10;13.30
528;DHT22;250;47.712;7.508;2022-12-07T15:31:49;9.10;13.60
528;DHT22;250;47.712;7.508;2022-12-07T15:34:16;9.00;13.90
528;DHT22;250;47.712;7.508;2022-12-07T15:36:45;9.00;14.10
528;DHT22;250;47.712;7.508;2022-12-07T15:39:12;8.90;14.00
528;DHT22;250;47.712;7.508;2022-12-07T15:41:39;8.80;14.50
528;DHT22;250;47.712;7.508;2022-12-07T15:44:08;8.70;14.60
528;DHT22;250;47.712;7.508;2022-12-07T15:46:52;8.60;14.80
528;DHT22;250;47.712;7.508;2022-12-07T15:49:20;8.50;15.10
528;DHT22;250;47.712;7.508;2022-12-07T15:51:48;8.40;15.40
528;DHT22;250;47.712;7.508;2022-12-07T15:54:19;8.40;15.70
528;DHT22;250;47.712;7.508;2022-12-07T15:56:46;8.30;15.90
528;DHT22;250;47.712;7.508;2022-12-07T15:59:14;8.20;16.20
528;DHT22;250;47.712;7.508;2022-12-07T16:01:41;8.10;16.90
528;DHT22;250;47.712;7.508;2022-12-07T16:04:08;8.00;17.50
528;DHT22;250;47.712;7.508;2022-12-07T16:06:35;8.00;17.50
528;DHT22;250;47.712;7.508;2022-12-07T16:09:04;7.90;17.40
528;DHT22;250;47.712;7.508;2022-12-07T16:11:32;7.80;17.40
528;DHT22;250;47.712;7.508;2022-12-07T16:13:59;7.70;17.50
528;DHT22;250;47.712;7.508;2022-12-07T16:16:26;7.60;17.60
528;DHT22;250;47.712;7.508;2022-12-07T16:18:54;7.60;17.70
528;DHT22;250;47.712;7.508;2022-12-07T16:21:21;7.50;17.80
528;DHT22;250;47.712;7.508;2022-12-07T16:23:48;7.40;17.90
528;DHT22;250;47.712;7.508;2022-12-07T16:26:18;7.30;18.00
528;DHT22;250;47.712;7.508;2022-12-07T16:28:48;7.30;18.40
528;DHT22;250;47.712;7.508;2022-12-07T16:31:20;7.20;18.50
528;DHT22;250;47.712;7.508;2022-12-07T16:33:48;7.10;18.60
528;DHT22;250;47.712;7.508;2022-12-07T16:36:16;7.10;18.70
528;DHT22;250;47.712;7.508;2022-12-07T16:38:44;7.00;18.80
528;DHT22;250;47.712;7.508;2022-12-07T16:41:11;6.90;19.00
528;DHT22;250;47.712;7.508;2022-12-07T16:43:39;6.80;19.30
528;DHT22;250;47.712;7.508;2022-12-07T16:46:07;6.80;19.60
528;DHT22;250;47.712;7.508;2022-12-07T16:48:36;6.70;19.70
528;DHT22;250;47.712;7.508;2022-12-07T16:51:04;6.70;19.60
528;DHT22;250;47.712;7.508;2022-12-07T16:53:32;6.60;19.70
528;DHT22;250;47.712;7.508;2022-12-07T16:55:59;6.60;19.80
528;DHT22;250;47.712;7.508;2022-12-07T16:58:26;6.50;19.70
528;DHT22;250;47.712;7.508;2022-12-07T17:00:55;6.50;19.70
528;DHT22;250;47.712;7.508;2022-12-07T17:03:23;6.40;19.80
528;DHT22;250;47.712;7.508;2022-12-07T17:05:50;6.40;20.00
528;DHT22;250;47.712;7.508;2022-12-07T17:08:17;6.30;19.80
528;DHT22;250;47.712;7.508;2022-12-07T17:10:44;6.20;20.10
528;DHT22;250;47.712;7.508;2022-12-07T17:13:12;6.20;20.10
528;DHT22;250;47.712;7.508;2022-12-07T17:16:00;6.20;20.30
528;DHT22;250;47.712;7.508;2022-12-07T17:18:29;6.10;20.20
528;DHT22;250;47.712;7.508;2022-12-07T17:21:01;6.10;20.20
528;DHT22;250;47.712;7.508;2022-12-07T17:23:29;6.10;20.20
528;DHT22;250;47.712;7.508;2022-12-07T17:25:56;6.00;20.20
528;DHT22;250;47.712;7.508;2022-12-07T17:28:23;6.00;20.10
528;DHT22;250;47.712;7.508;2022-12-07T17:30:50;5.90;20.10